Time;durP1;ratioP1;P1;durP2;ratioP2;P2;SDS_P1;SDS_P2;PMS_P1;PMS_P2;Temp;Humidity;BMP_temperature;BMP_pressure;BME280_temperature;BME280_humidity;BME280_pressure;Samples;Min_cycle;Max_cycle;Signal;HPM_P1;HPM_P2
2020/12/23 00:01:13;;;;;;;7.30;3.33;;;;;;;13.16;52.07;101025.34;5070873;28;20094;-68
2020/12/23 00:03:40;;;;;;;7.50;3.13;;;;;;;13.16;51.98;101030.84;5070852;28;20044;-68
2020/12/23 00:06:08;;;;;;;6.88;3.20;;;;;;;13.15;51.97;101034.59;5071158;28;20036;-69
2020/12/23 00:08:36;;;;;;;6.68;3.42;;;;;;;13.15;51.92;101032.72;5046022;28;20047;-68
2020/12/23 00:11:04;;;;;;;6.80;3.55;;;;;;;13.13;51.80;101031.97;5063597;28;20124;-68
2020/12/23 00:13:32;;;;;;;6.78;3.35;;;;;;;13.14;52.15;101032.84;5070542;28;20032;-68
2020/12/23 00:16:00;;;;;;;5.50;3.13;;;;;;;13.13;52.32;101021.00;5070615;28;20043;-68
2020/12/23 00:18:28;;;;;;;7.05;3.92;;;;;;;13.15;51.81;101002.50;5066521;28;20054;-68
2020/12/23 00:20:55;;;;;;;7.25;4.10;;;;;;;13.12;52.26;100994.53;5069217;28;20079;-69
2020/12/23 00:23:23;;;;;;;7.50;4.10;;;;;;;13.12;52.34;101000.03;5073524;28;20041;-68
2020/12/23 00:25:51;;;;;;;7.70;3.67;;;;;;;13.15;52.05;101018.09;5071038;28;20033;-68
2020/12/23 00:28:19;;;;;;;7.72;4.07;;;;;;;13.12;52.13;101022.00;5067045;28;20060;-68
2020/12/23 00:30:46;;;;;;;7.07;4.28;;;;;;;13.13;52.09;101011.88;5071331;28;20063;-68
2020/12/23 00:33:49;;;;;;;7.45;3.75;;;;;;;13.09;52.51;100997.56;5069003;28;20032;-68
2020/12/23 00:36:16;;;;;;;6.43;3.45;;;;;;;13.11;52.21;100991.94;5084470;28;20111;-68
2020/12/23 00:38:44;;;;;;;6.72;3.70;;;;;;;13.11;52.40;100983.69;5066202;28;20115;-69
2020/12/23 00:41:12;;;;;;;6.55;3.90;;;;;;;13.12;51.81;100990.91;5070934;28;20438;-69
2020/12/23 00:43:39;;;;;;;7.32;3.45;;;;;;;13.10;52.31;100990.19;5069472;28;20037;-69
2020/12/23 00:46:12;;;;;;;7.22;3.63;;;;;;;13.12;52.07;100985.44;5070857;28;20041;-69
2020/12/23 00:48:40;;;;;;;7.80;3.55;;;;;;;13.07;52.45;100985.00;5050349;28;20043;-69
2020/12/23 00:51:09;;;;;;;5.95;3.10;;;;;;;13.09;51.82;101002.19;5055407;28;20051;-69
2020/12/23 00:53:37;;;;;;;6.10;2.90;;;;;;;13.08;52.31;101000.47;5073252;28;20037;-69
2020/12/23 00:56:05;;;;;;;6.15;3.22;;;;;;;13.07;51.96;101002.34;5069965;28;20033;-69
2020/12/23 00:58:33;;;;;;;7.40;3.55;;;;;;;13.08;52.39;100995.00;5065698;28;20506;-69
2020/12/23 01:01:01;;;;;;;5.80;2.92;;;;;;;13.06;52.43;100997.00;5075338;28;20047;-69
2020/12/23 01:03:44;;;;;;;;;;;;;;;12.79;52.90;100997.69;5071507;28;20391;-69
2020/12/23 01:06:12;;;;;;;5.10;2.47;;;;;;;13.01;52.03;100997.41;5074131;28;19955;-69
2020/12/23 01:08:41;;;;;;;5.72;2.80;;;;;;;13.06;52.04;100994.25;5075419;28;20056;-69
2020/12/23 01:11:10;;;;;;;5.53;2.95;;;;;;;13.05;51.96;100998.88;5070809;28;20044;-69
2020/12/23 01:13:39;;;;;;;6.90;3.35;;;;;;;13.06;52.16;100992.38;5060602;28;20061;-69
2020/12/23 01:16:08;;;;;;;5.32;2.70;;;;;;;13.04;52.28;100997.16;5058220;28;20041;-69
2020/12/23 01:18:35;;;;;;;5.65;3.13;;;;;;;13.04;52.26;100986.16;5075064;28;20044;-69
2020/12/23 01:21:03;;;;;;;4.85;2.42;;;;;;;13.03;52.31;100987.16;5075152;28;20098;-69
2020/12/23 01:23:30;;;;;;;5.43;2.90;;;;;;;13.03;52.33;100994.53;5070043;28;20434;-69
2020/12/23 01:25:57;;;;;;;5.18;2.90;;;;;;;13.03;52.36;100997.28;5058012;28;20128;-69
2020/12/23 01:28:25;;;;;;;4.95;2.25;;;;;;;13.03;52.38;100989.03;5070496;28;20147;-70
2020/12/23 01:30:53;;;;;;;6.70;2.65;;;;;;;13.03;52.01;100981.69;5075190;28;20041;-69
2020/12/23 01:33:20;;;;;;;4.45;2.63;;;;;;;13.02;52.36;100995.53;5075663;28;20463;-69
2020/12/23 01:35:47;;;;;;;4.97;2.55;;;;;;;13.02;52.39;100992.78;5061529;28;20036;-69
2020/12/23 01:38:15;;;;;;;5.38;2.50;;;;;;;13.02;52.32;101003.78;5064916;28;20069;-69
2020/12/23 01:40:42;;;;;;;4.93;2.40;;;;;;;13.02;52.46;101009.28;5068171;28;20412;-69
2020/12/23 01:43:10;;;;;;;6.00;2.58;;;;;;;13.01;52.55;101008.41;5075287;28;20071;-69
2020/12/23 01:45:38;;;;;;;4.03;2.10;;;;;;;13.01;52.41;101008.41;5058845;28;20428;-69
2020/12/23 01:48:15;;;;;;;5.32;2.40;;;;;;;13.04;52.64;101012.75;5088101;28;20047;-69
2020/12/23 01:50:43;;;;;;;4.93;2.50;;;;;;;13.00;52.56;101020.44;5067476;28;20048;-69
2020/12/23 01:53:11;;;;;;;3.28;1.92;;;;;;;13.01;52.17;101016.66;5079973;28;20079;-69
2020/12/23 01:55:39;;;;;;;5.45;2.50;;;;;;;13.01;52.44;101013.03;5074653;28;20037;-69
2020/12/23 01:58:09;;;;;;;4.53;2.40;;;;;;;13.00;52.60;101009.44;5075175;28;20395;-69
2020/12/23 02:00:37;;;;;;;4.97;2.42;;;;;;;13.01;52.41;101013.03;5072850;28;20039;-69
2020/12/23 02:03:05;;;;;;;4.60;2.15;;;;;;;12.99;52.16;101017.81;5057155;28;20133;-69
2020/12/23 02:05:33;;;;;;;4.55;2.38;;;;;;;13.01;52.47;101008.41;5073949;28;20396;-69
2020/12/23 02:08:00;;;;;;;5.53;2.45;;;;;;;12.99;52.59;101002.22;5044480;28;20056;-69
2020/12/23 02:10:29;;;;;;;3.70;2.42;;;;;;;12.98;52.62;100997.72;5060020;28;20345;-69
2020/12/23 02:12:56;;;;;;;4.25;2.22;;;;;;;12.99;52.24;100988.47;5073363;28;20499;-69
2020/12/23 02:15:23;;;;;;;5.32;2.95;;;;;;;12.99;52.28;100990.38;5068757;28;20063;-69
2020/12/23 02:17:51;;;;;;;4.82;2.30;;;;;;;12.99;52.30;100993.09;5062839;28;20079;-69
2020/12/23 02:20:19;;;;;;;4.18;2.38;;;;;;;12.99;52.84;100998.59;5082734;28;20371;-69
2020/12/23 02:22:47;;;;;;;4.53;2.35;;;;;;;13.00;52.28;100989.34;5079957;28;20040;-69
2020/12/23 02:25:15;;;;;;;4.55;2.25;;;;;;;13.00;52.74;100981.13;5074628;28;20648;-69
2020/12/23 02:27:43;;;;;;;4.55;2.28;;;;;;;13.00;52.29;100987.47;5069859;28;20049;-69
2020/12/23 02:30:12;;;;;;;4.75;2.40;;;;;;;13.00;52.49;100979.25;5065660;28;20040;-69
2020/12/23 02:32:39;;;;;;;4.80;2.83;;;;;;;12.99;52.79;100974.75;5065084;28;20047;-69
2020/12/23 02:35:08;;;;;;;5.47;2.70;;;;;;;13.01;52.56;100975.44;5054732;28;20044;-69
2020/12/23 02:37:36;;;;;;;4.30;2.25;;;;;;;12.99;52.52;100976.63;5081486;28;20039;-69
2020/12/23 02:40:06;;;;;;;4.55;2.50;;;;;;;13.01;52.47;100972.69;5063544;28;20049;-69
2020/12/23 02:42:34;;;;;;;4.50;2.60;;;;;;;13.00;52.80;100964.63;5057639;28;20036;-69
2020/12/23 02:45:01;;;;;;;5.28;2.58;;;;;;;13.00;52.81;100962.75;5073944;28;20117;-69
2020/12/23 02:47:29;;;;;;;4.60;2.63;;;;;;;13.00;52.83;100961.91;5078939;28;20055;-69
2020/12/23 02:49:56;;;;;;;5.57;2.70;;;;;;;13.00;52.70;100943.53;5078014;28;20044;-69
2020/12/23 02:52:23;;;;;;;5.07;2.88;;;;;;;12.99;52.84;100940.94;5080393;28;20036;-69
2020/12/23 02:54:50;;;;;;;4.90;3.10;;;;;;;12.99;52.61;100943.69;5074003;28;20131;-69
2020/12/23 02:57:18;;;;;;;4.85;2.97;;;;;;;12.99;52.62;100943.69;5073710;28;20476;-69
2020/12/23 02:59:45;;;;;;;6.30;3.15;;;;;;;12.98;52.71;100941.94;5065517;28;20049;-69
2020/12/23 03:02:12;;;;;;;4.82;2.90;;;;;;;12.98;52.91;100934.56;5070850;28;20057;-69
2020/12/23 03:04:59;;;;;;;4.38;2.75;;;;;;;12.96;52.20;100936.59;5073316;28;20041;-69
2020/12/23 03:07:26;;;;;;;5.47;3.00;;;;;;;12.97;52.69;100927.34;5072705;28;20044;-69
2020/12/23 03:09:54;;;;;;;5.13;3.10;;;;;;;12.97;52.92;100930.09;5073756;28;20041;-69
2020/12/23 03:12:22;;;;;;;5.70;2.90;;;;;;;12.99;52.41;100935.44;5073287;28;20047;-69
2020/12/23 03:14:49;;;;;;;6.43;4.10;;;;;;;12.96;52.55;100935.72;5076542;28;20037;-69
2020/12/23 03:17:18;;;;;;;5.97;3.05;;;;;;;12.96;52.51;100932.97;5071573;28;20384;-69
2020/12/23 03:19:45;;;;;;;5.28;2.88;;;;;;;12.96;52.54;100936.59;5084914;28;20044;-69
2020/12/23 03:22:12;;;;;;;5.15;3.38;;;;;;;12.94;52.61;100933.13;5085315;28;20497;-69
2020/12/23 03:24:40;;;;;;;5.38;3.20;;;;;;;12.95;52.60;100936.72;5081974;28;20036;-69
2020/12/23 03:27:08;;;;;;;5.53;2.90;;;;;;;12.95;52.80;100943.09;5073294;28;20039;-69
2020/12/23 03:29:36;;;;;;;5.47;2.60;;;;;;;12.95;52.58;100937.59;5073784;28;20075;-69
2020/12/23 03:32:04;;;;;;;4.38;2.60;;;;;;;12.94;52.59;100932.25;5070116;28;20051;-69
2020/12/23 03:34:32;;;;;;;4.32;2.08;;;;;;;12.94;53.02;100938.59;5069851;28;20044;-69
2020/12/23 03:36:59;;;;;;;3.70;2.10;;;;;;;12.94;52.62;100935.00;5072159;28;20105;-69
2020/12/23 03:39:26;;;;;;;4.47;2.15;;;;;;;12.94;52.75;100935.88;5071245;28;20036;-70
2020/12/23 03:41:53;;;;;;;4.05;2.28;;;;;;;12.95;52.66;100937.59;5072187;28;20046;-71
2020/12/23 03:44:21;;;;;;;3.65;2.00;;;;;;;12.94;52.66;100924.88;5082976;28;20489;-71
2020/12/23 03:46:49;;;;;;;4.60;2.40;;;;;;;12.95;52.86;100929.38;5062419;28;20432;-71
2020/12/23 03:49:16;;;;;;;5.95;2.38;;;;;;;12.95;52.71;100929.38;5067224;28;20056;-71
2020/12/23 03:51:43;;;;;;;3.95;2.40;;;;;;;12.94;52.44;100919.38;5063213;28;20032;-71
2020/12/23 03:54:10;;;;;;;3.58;2.20;;;;;;;12.94;52.79;100915.78;5069573;28;20045;-71
2020/12/23 03:56:38;;;;;;;4.53;2.13;;;;;;;12.95;52.86;100910.16;5080946;28;20503;-72
2020/12/23 03:59:05;;;;;;;4.68;2.42;;;;;;;12.94;52.86;100905.66;5070570;28;20068;-72
2020/12/23 04:01:32;;;;;;;3.33;2.17;;;;;;;12.94;53.21;100907.53;5069546;28;20044;-72
2020/12/23 04:04:00;;;;;;;4.90;2.15;;;;;;;12.95;52.64;100907.41;5070850;28;20041;-72
2020/12/23 04:06:28;;;;;;;3.42;1.83;;;;;;;12.94;52.87;100902.03;5070816;28;20037;-73
2020/12/23 04:08:55;;;;;;;4.72;2.28;;;;;;;12.93;52.58;100908.53;5067497;28;20526;-73
2020/12/23 04:11:22;;;;;;;2.88;1.58;;;;;;;12.92;52.52;100909.59;5083956;28;20596;-73
2020/12/23 04:13:50;;;;;;;3.30;1.90;;;;;;;12.91;52.80;100916.06;5073629;28;20048;-72
2020/12/23 04:16:17;;;;;;;3.80;1.70;;;;;;;12.91;52.54;100911.44;5067566;28;20107;-72
2020/12/23 04:18:44;;;;;;;3.28;1.88;;;;;;;12.90;52.84;100915.19;5069755;28;20438;-72
2020/12/23 04:21:12;;;;;;;3.40;1.85;;;;;;;12.91;52.58;100907.81;5083149;28;20445;-73
2020/12/23 04:23:39;;;;;;;2.70;1.48;;;;;;;12.90;52.67;100906.06;5083743;28;20188;-73
2020/12/23 04:26:07;;;;;;;3.70;1.52;;;;;;;12.88;52.56;100897.13;5050849;28;20040;-73
2020/12/23 04:28:36;;;;;;;4.10;1.50;;;;;;;12.88;52.78;100895.25;5069058;28;20048;-73
2020/12/23 04:31:03;;;;;;;2.35;1.27;;;;;;;12.88;52.80;100894.38;5070626;28;20124;-73
2020/12/23 04:33:31;;;;;;;2.55;1.38;;;;;;;12.87;52.71;100889.88;5051781;28;20040;-73
2020/12/23 04:35:59;;;;;;;2.97;1.50;;;;;;;12.87;53.17;100889.88;5068284;28;20045;-73
2020/12/23 04:38:27;;;;;;;3.28;1.30;;;;;;;12.86;52.60;100889.03;5066066;28;20048;-73
2020/12/23 04:40:55;;;;;;;2.40;1.23;;;;;;;12.84;52.72;100885.56;5066179;28;20036;-72
2020/12/23 04:43:23;;;;;;;2.45;1.30;;;;;;;12.84;53.21;100893.81;5071433;28;20035;-71
2020/12/23 04:45:51;;;;;;;1.70;1.20;;;;;;;12.84;52.68;100892.94;5071335;28;20032;-71
2020/12/23 04:48:24;;;;;;;1.88;1.00;;;;;;;12.85;53.20;100887.28;5067259;28;20036;-71
2020/12/23 04:50:54;;;;;;;2.25;1.10;;;;;;;12.83;52.85;100880.22;5053503;28;20453;-72
2020/12/23 04:53:22;;;;;;;1.92;1.17;;;;;;;12.81;52.81;100883.13;5068882;28;20400;-72
2020/12/23 04:55:51;;;;;;;1.98;1.10;;;;;;;12.80;52.84;100878.63;5069564;28;20116;-72
2020/12/23 04:58:19;;;;;;;3.22;1.40;;;;;;;12.79;52.96;100883.25;5066626;28;20387;-72
2020/12/23 05:00:46;;;;;;;2.45;1.20;;;;;;;12.79;52.83;100891.50;5068950;28;20040;-72
2020/12/23 05:03:13;;;;;;;2.92;1.40;;;;;;;12.79;53.30;100885.13;5070588;28;20044;-71
2020/12/23 05:05:40;;;;;;;2.00;1.02;;;;;;;12.79;53.12;100883.25;5071130;28;20087;-70
2020/12/23 05:08:08;;;;;;;2.05;1.27;;;;;;;12.79;52.92;100874.16;5070214;28;20044;-70
2020/12/23 05:10:37;;;;;;;2.15;1.17;;;;;;;12.79;53.12;100874.16;5082007;28;20040;-70
2020/12/23 05:13:05;;;;;;;2.20;1.30;;;;;;;12.80;53.08;100867.66;5060378;28;20053;-70
2020/12/23 05:15:34;;;;;;;1.63;1.10;;;;;;;12.80;53.22;100874.00;5070606;28;20064;-70
2020/12/23 05:18:02;;;;;;;1.83;1.17;;;;;;;12.79;53.11;100879.63;5051691;28;20106;-70
2020/12/23 05:20:30;;;;;;;2.17;1.20;;;;;;;12.79;53.46;100877.75;5064848;28;20044;-70
2020/12/23 05:22:58;;;;;;;2.85;1.15;;;;;;;12.80;53.49;100871.25;5074755;28;20128;-70
2020/12/23 05:25:27;;;;;;;1.90;1.10;;;;;;;12.81;53.27;100872.13;5075193;28;20127;-70
2020/12/23 05:27:54;;;;;;;2.20;1.08;;;;;;;12.79;53.32;100865.91;5074905;28;20044;-70
2020/12/23 05:30:22;;;;;;;1.98;1.20;;;;;;;12.80;53.33;100879.50;5084130;28;20041;-69
2020/12/23 05:32:53;;;;;;;2.58;1.40;;;;;;;12.80;53.29;100875.88;5076128;28;20037;-69
2020/12/23 05:35:21;;;;;;;2.85;1.38;;;;;;;12.80;53.54;100863.03;5070261;28;20040;-69
2020/12/23 05:37:49;;;;;;;3.42;1.63;;;;;;;12.80;53.12;100867.66;5079283;28;20028;-69
2020/12/23 05:40:17;;;;;;;2.38;1.27;;;;;;;12.79;53.24;100863.16;5065255;28;20056;-68
2020/12/23 05:42:46;;;;;;;2.15;1.27;;;;;;;12.80;53.07;100874.00;5070438;28;20357;-69
2020/12/23 05:45:16;;;;;;;2.25;1.20;;;;;;;12.80;53.30;100859.41;5049874;28;20133;-69
2020/12/23 05:47:45;;;;;;;2.33;1.38;;;;;;;12.80;53.17;100854.78;5069314;28;20043;-70
2020/12/23 05:50:12;;;;;;;2.53;1.48;;;;;;;12.79;53.48;100857.69;5080248;28;20039;-69
2020/12/23 05:52:40;;;;;;;3.35;1.60;;;;;;;12.79;53.01;100854.94;5070571;28;20380;-69
2020/12/23 05:55:25;;;;;;;3.22;1.48;;;;;;;12.79;53.23;100852.19;5073489;28;20041;-69
2020/12/23 05:57:52;;;;;;;2.35;1.30;;;;;;;12.77;53.12;100845.97;5071812;28;20424;-69
2020/12/23 06:00:19;;;;;;;2.90;1.23;;;;;;;12.78;53.63;100839.47;5072477;28;20076;-70
2020/12/23 06:03:09;;;;;;;3.38;1.20;;;;;;;12.80;53.37;100841.06;5066269;28;20070;-70
2020/12/23 06:05:44;;;;;;;1.77;1.00;;;;;;;12.79;53.29;100836.59;5077304;28;20075;-70
2020/12/23 06:08:11;;;;;;;2.33;1.13;;;;;;;12.77;53.11;100833.13;5063467;28;20048;-70
2020/12/23 06:10:41;;;;;;;2.72;1.70;;;;;;;12.77;53.30;100833.13;5072590;28;20067;-70
2020/12/23 06:13:12;;;;;;;4.55;1.63;;;;;;;12.79;53.67;100836.59;5073746;28;20083;-69
2020/12/23 06:15:42;;;;;;;3.33;1.45;;;;;;;12.79;53.71;100836.59;5073796;28;20058;-69
2020/12/23 06:18:17;;;;;;;4.30;1.63;;;;;;;12.78;53.50;100828.50;5069187;28;20028;-69
2020/12/23 06:20:45;;;;;;;2.88;1.70;;;;;;;12.78;53.36;100825.75;5071008;28;20043;-69
2020/12/23 06:23:25;;;;;;;2.88;1.77;;;;;;;12.79;53.57;100832.97;5072648;28;20519;-69
2020/12/23 06:25:53;;;;;;;3.42;1.83;;;;;;;12.76;53.40;100820.41;5069089;28;20059;-69
2020/12/23 06:28:24;;;;;;;3.83;1.55;;;;;;;12.79;53.72;100805.53;5071205;28;20094;-69
2020/12/23 06:30:52;;;;;;;3.20;1.40;;;;;;;12.78;53.84;100798.31;5068466;28;20040;-69
2020/12/23 06:33:22;;;;;;;2.75;1.52;;;;;;;12.78;53.84;100795.56;5073724;28;20045;-69
2020/12/23 06:35:50;;;;;;;2.75;1.60;;;;;;;12.76;53.88;100792.09;5072034;28;20056;-69
2020/12/23 06:38:21;;;;;;;2.65;1.40;;;;;;;12.79;53.76;100798.16;5068735;28;20044;-69
2020/12/23 06:40:57;;;;;;;2.42;1.20;;;;;;;12.79;53.96;100802.78;5064055;28;20516;-69
2020/12/23 06:43:56;;;;;;;2.40;1.27;;;;;;;12.73;53.81;100800.63;5067751;28;20044;-69
2020/12/23 06:46:23;;;;;;;3.38;1.80;;;;;;;12.75;54.04;100795.88;5002259;28;20066;-69
2020/12/23 06:49:11;;;;;;;2.60;1.50;;;;;;;12.77;53.44;100789.19;5055382;28;20056;-69
2020/12/23 06:51:39;;;;;;;2.80;1.50;;;;;;;12.76;53.46;100790.22;5072769;28;20497;-69
2020/12/23 06:54:07;;;;;;;2.80;1.60;;;;;;;12.77;53.37;100796.56;5055571;28;20447;-69
2020/12/23 06:56:45;;;;;;;3.53;1.63;;;;;;;12.80;53.56;100796.28;5072393;28;20060;-69
2020/12/23 06:59:46;;;;;;;3.30;1.55;;;;;;;12.78;54.09;100801.03;5069244;28;20106;-69
2020/12/23 07:02:14;;;;;;;2.45;1.40;;;;;;;12.75;53.91;100794.00;5071471;28;20048;-69
2020/12/23 07:04:48;;;;;;;2.38;1.30;;;;;;;12.79;54.19;100806.41;5067646;28;20043;-69
2020/12/23 07:07:28;;;;;;;3.72;1.77;;;;;;;12.79;54.09;100805.53;5071894;28;20032;-69
2020/12/23 07:09:55;;;;;;;3.05;1.52;;;;;;;12.77;53.86;100804.81;5067820;28;20044;-69
2020/12/23 07:12:26;;;;;;;3.08;1.73;;;;;;;12.79;53.71;100803.66;5065251;28;20102;-69
2020/12/23 07:15:06;;;;;;;3.10;1.40;;;;;;;12.79;53.95;100806.41;5072131;28;20051;-69
2020/12/23 07:17:35;;;;;;;3.40;1.45;;;;;;;12.79;54.06;100808.28;5072098;28;20044;-69
2020/12/23 07:20:07;;;;;;;2.33;1.30;;;;;;;12.80;54.16;100810.88;5074426;28;20044;-69
2020/12/23 07:22:35;;;;;;;;;;;;;;;12.52;54.57;100811.78;5075223;28;20154;-69
2020/12/23 07:25:04;;;;;;;2.25;1.40;;;;;;;12.75;53.72;100804.97;5069138;28;19920;-69
2020/12/23 07:27:33;;;;;;;4.82;1.40;;;;;;;12.79;53.76;100800.91;5071017;28;20052;-69
2020/12/23 07:30:06;;;;;;;3.20;1.35;;;;;;;12.84;53.66;100813.34;5070095;28;20048;-69
2020/12/23 07:32:35;;;;;;;2.42;1.58;;;;;;;12.81;53.48;100803.50;5067038;28;20725;-69
2020/12/23 07:35:06;;;;;;;3.80;2.00;;;;;;;12.82;53.79;100802.50;5078737;28;20052;-69
2020/12/23 07:37:39;;;;;;;3.10;1.58;;;;;;;12.85;54.13;100809.53;5070781;28;20692;-69
2020/12/23 07:40:16;;;;;;;4.43;2.10;;;;;;;12.84;53.92;100807.84;5067889;28;20105;-69
2020/12/23 07:42:48;;;;;;;3.45;1.80;;;;;;;12.85;54.01;100802.19;5072405;28;20040;-69
2020/12/23 07:45:16;;;;;;;4.43;2.17;;;;;;;12.84;53.73;100805.09;5086364;28;20044;-69
2020/12/23 07:47:53;;;;;;;3.85;2.15;;;;;;;12.87;53.77;100802.03;5069188;28;20560;-69
2020/12/23 07:50:22;;;;;;;3.60;1.90;;;;;;;12.85;53.73;100810.41;5058160;28;20048;-69
2020/12/23 07:52:49;;;;;;;3.85;1.67;;;;;;;12.85;53.68;100804.06;5068470;28;20037;-69
2020/12/23 07:55:18;;;;;;;3.33;1.95;;;;;;;12.86;53.49;100806.66;5076469;28;20045;-69
2020/12/23 07:57:47;;;;;;;2.90;1.83;;;;;;;12.85;53.47;100804.06;5070507;28;20042;-69
2020/12/23 08:00:15;;;;;;;4.10;1.98;;;;;;;12.85;53.76;100804.06;5069308;28;20066;-69
2020/12/23 08:02:43;;;;;;;3.22;2.10;;;;;;;12.85;53.66;100802.19;5080594;28;20046;-69
2020/12/23 08:05:12;;;;;;;3.83;1.90;;;;;;;12.85;53.82;100801.31;5070794;28;20102;-69
2020/12/23 08:07:43;;;;;;;4.35;2.10;;;;;;;12.84;54.18;100803.22;5067917;28;20037;-69
2020/12/23 08:10:12;;;;;;;3.35;1.77;;;;;;;12.84;53.58;100789.50;5070188;28;20047;-69
2020/12/23 08:12:41;;;;;;;3.33;1.95;;;;;;;12.84;53.72;100791.38;5069402;28;20048;-69
2020/12/23 08:15:09;;;;;;;3.40;1.83;;;;;;;12.83;53.85;100801.47;5047583;28;20098;-69
2020/12/23 08:17:37;;;;;;;4.70;1.83;;;;;;;12.80;53.69;100788.91;5069993;28;20521;-69
2020/12/23 08:20:07;;;;;;;3.17;1.60;;;;;;;12.83;53.94;100784.16;5070663;28;20041;-69
2020/12/23 08:22:35;;;;;;;2.33;1.40;;;;;;;12.80;54.09;100777.06;5069803;28;20052;-69
2020/12/23 08:25:07;;;;;;;2.80;1.40;;;;;;;12.83;54.09;100775.91;5064896;28;20055;-70
2020/12/23 08:27:35;;;;;;;2.97;1.60;;;;;;;12.77;53.63;100780.97;5070879;28;20060;-69
2020/12/23 08:30:05;;;;;;;3.33;1.40;;;;;;;12.79;53.89;100784.44;5071273;28;20048;-69
2020/12/23 08:32:42;;;;;;;2.75;1.42;;;;;;;12.80;54.00;100775.19;5047737;28;20047;-70
2020/12/23 08:35:10;;;;;;;2.83;1.52;;;;;;;12.79;53.83;100767.09;5069539;28;20037;-69
2020/12/23 08:37:39;;;;;;;3.13;1.60;;;;;;;12.79;53.92;100778.06;5071102;28;20535;-69
2020/12/23 08:40:08;;;;;;;2.42;1.40;;;;;;;12.81;53.77;100773.31;5068497;28;20037;-69
2020/12/23 08:42:36;;;;;;;3.10;1.45;;;;;;;12.80;53.92;100766.09;5066994;28;20098;-70
2020/12/23 08:45:05;;;;;;;1.98;1.15;;;;;;;12.81;54.14;100765.06;5069556;28;20040;-70
2020/12/23 08:47:34;;;;;;;2.88;1.60;;;;;;;12.83;54.12;100771.28;5068917;28;20058;-69
2020/12/23 08:50:01;;;;;;;3.65;1.30;;;;;;;12.81;54.11;100765.06;5071457;28;20124;-69
2020/12/23 08:52:29;;;;;;;3.03;1.45;;;;;;;12.82;54.36;100755.81;5075420;28;20128;-70
2020/12/23 08:54:56;;;;;;;1.95;1.15;;;;;;;12.83;53.86;100760.31;5070957;28;20094;-70
2020/12/23 08:57:27;;;;;;;2.70;1.48;;;;;;;12.84;54.18;100756.56;5071211;28;20044;-69
2020/12/23 08:59:55;;;;;;;2.42;1.10;;;;;;;12.85;53.95;100754.66;5069656;28;20120;-70
2020/12/23 09:02:22;;;;;;;2.95;1.15;;;;;;;12.83;54.38;100749.31;5067416;28;20106;-70
2020/12/23 09:04:50;;;;;;;4.88;1.25;;;;;;;12.85;54.39;100751.91;5066364;28;20436;-71
2020/12/23 09:07:21;;;;;;;2.22;1.40;;;;;;;12.87;54.18;100750.75;5070189;28;20475;-70
2020/12/23 09:09:50;;;;;;;3.40;1.30;;;;;;;12.85;54.22;100747.28;5064906;28;20545;-70
2020/12/23 09:12:22;;;;;;;2.25;1.25;;;;;;;12.89;54.37;100756.97;5061761;28;20056;-70
2020/12/23 09:14:51;;;;;;;2.55;1.20;;;;;;;12.88;54.39;100757.97;5049181;28;20045;-72
2020/12/23 09:17:24;;;;;;;2.70;1.48;;;;;;;12.91;54.13;100746.69;5070025;28;20052;-70
2020/12/23 09:19:53;;;;;;;1.67;1.00;;;;;;;12.90;54.54;100746.84;5069500;28;20047;-70
2020/12/23 09:22:32;;;;;;;2.53;1.42;;;;;;;12.94;54.79;100751.91;5072822;28;20032;-70
2020/12/23 09:25:17;;;;;;;2.83;1.40;;;;;;;12.95;54.05;100750.88;5053704;28;20452;-70
2020/12/23 09:27:45;;;;;;;2.28;1.10;;;;;;;12.94;54.08;100751.03;5071460;28;20064;-69
2020/12/23 09:30:14;;;;;;;2.63;1.40;;;;;;;12.97;54.07;100740.63;5070108;28;20499;-70
2020/12/23 09:32:52;;;;;;;3.25;1.50;;;;;;;13.00;54.23;100756.81;5050604;28;20037;-70
2020/12/23 09:35:21;;;;;;;2.97;1.23;;;;;;;12.99;54.46;100755.06;5068847;28;20518;-69
2020/12/23 09:37:50;;;;;;;2.88;1.55;;;;;;;13.00;54.25;100764.19;5070427;28;20387;-69
2020/12/23 09:40:17;;;;;;;2.15;1.38;;;;;;;13.02;54.17;100767.63;5072884;28;20044;-70
2020/12/23 09:42:44;;;;;;;2.05;1.30;;;;;;;13.04;54.28;100755.47;5072436;28;20044;-69
2020/12/23 09:45:13;;;;;;;3.22;1.27;;;;;;;13.06;54.00;100747.09;5074378;28;20051;-70
2020/12/23 09:47:43;;;;;;;2.63;1.30;;;;;;;13.08;54.41;100737.69;5074232;28;20403;-70
2020/12/23 09:50:11;;;;;;;2.58;1.35;;;;;;;13.09;54.40;100739.41;5072190;28;20049;-69
2020/12/23 09:52:38;;;;;;;2.10;1.13;;;;;;;13.09;54.01;100733.91;5072230;28;20127;-70
2020/12/23 09:55:07;;;;;;;2.75;1.20;;;;;;;13.11;54.09;100720.91;5074264;28;20044;-70
2020/12/23 09:57:35;;;;;;;2.10;1.20;;;;;;;13.13;53.98;100718.00;5056752;28;20068;-70
2020/12/23 10:00:05;;;;;;;2.67;1.20;;;;;;;13.17;54.38;100724.94;5055015;28;20051;-69
2020/12/23 10:02:53;;;;;;;2.55;1.33;;;;;;;13.16;54.32;100715.84;5013342;28;20053;-70
2020/12/23 10:05:21;;;;;;;2.15;1.25;;;;;;;13.17;54.33;100709.28;5012084;28;20510;-69
2020/12/23 10:08:14;;;;;;;3.40;1.40;;;;;;;13.16;54.20;100704.84;5007298;28;20046;-71
2020/12/23 10:10:42;;;;;;;3.35;1.38;;;;;;;13.16;54.45;100707.59;5015974;28;20120;-69
2020/12/23 10:13:10;;;;;;;2.22;1.30;;;;;;;13.20;54.40;100702.63;5014534;28;20133;-69
2020/12/23 10:15:38;;;;;;;3.17;1.58;;;;;;;13.22;53.97;100688.75;5017590;28;20041;-70
2020/12/23 10:18:06;;;;;;;2.97;1.40;;;;;;;13.24;54.00;100683.97;5011384;28;20084;-70
2020/12/23 10:20:33;;;;;;;2.30;1.40;;;;;;;13.25;54.08;100685.72;5006676;28;20120;-71
2020/12/23 10:23:00;;;;;;;2.88;1.10;;;;;;;13.27;54.12;100675.41;5009846;28;20066;-69
2020/12/23 10:25:30;;;;;;;2.30;1.20;;;;;;;13.27;54.43;100670.78;5014878;28;20077;-69
2020/12/23 10:27:57;;;;;;;2.13;1.00;;;;;;;13.28;54.54;100669.78;5002800;28;20098;-68
2020/12/23 10:30:24;;;;;;;2.53;1.40;;;;;;;13.29;53.96;100663.25;5008800;28;20045;-68
2020/12/23 10:33:09;;;;;;;2.65;1.38;;;;;;;13.31;53.94;100663.13;4991841;28;20060;-68
2020/12/23 10:35:37;;;;;;;2.25;1.20;;;;;;;13.32;54.02;100659.34;5071529;28;20068;-68
2020/12/23 10:38:04;;;;;;;2.53;1.17;;;;;;;13.34;54.23;100662.78;5069356;28;20055;-67
2020/12/23 10:40:33;;;;;;;1.88;1.20;;;;;;;13.34;53.80;100652.66;5065970;28;20040;-68
2020/12/23 10:43:01;;;;;;;2.03;1.20;;;;;;;13.38;53.98;100650.47;5066728;28;20067;-68
2020/12/23 10:45:29;;;;;;;3.45;1.60;;;;;;;13.37;53.91;100644.13;5072139;28;20037;-68
2020/12/23 10:47:56;;;;;;;2.75;1.30;;;;;;;13.37;53.67;100630.38;5075498;28;20036;-68
2020/12/23 10:50:25;;;;;;;2.40;1.00;;;;;;;13.40;53.68;100618.22;5071222;28;20044;-68
2020/12/23 10:52:52;;;;;;;3.53;1.17;;;;;;;13.40;53.73;100618.22;5066417;28;20040;-67
2020/12/23 10:55:19;;;;;;;2.03;1.20;;;;;;;13.41;54.20;100609.84;5070783;28;20047;-68
2020/12/23 10:57:46;;;;;;;2.33;1.40;;;;;;;13.40;54.12;100602.59;5072113;28;20036;-68
2020/12/23 11:00:14;;;;;;;2.60;1.40;;;;;;;13.41;53.50;100592.47;5071126;28;20044;-68
2020/12/23 11:02:41;;;;;;;2.20;1.15;;;;;;;13.41;53.97;100589.72;5065619;28;20422;-68
2020/12/23 11:05:09;;;;;;;2.30;1.20;;;;;;;13.41;53.48;100584.22;5068656;28;20064;-69
2020/12/23 11:07:37;;;;;;;3.10;1.65;;;;;;;13.44;53.57;100587.50;5054021;28;20570;-69
2020/12/23 11:10:14;;;;;;;3.22;1.15;;;;;;;13.41;53.34;100586.97;5068734;28;20063;-68
2020/12/23 11:12:42;;;;;;;2.70;1.30;;;;;;;13.41;53.43;100578.75;5071442;28;20044;-68
2020/12/23 11:15:09;;;;;;;2.33;1.35;;;;;;;13.41;53.66;100576.00;5070810;28;20480;-68
2020/12/23 11:17:36;;;;;;;3.75;1.30;;;;;;;13.39;53.40;100581.63;5071477;28;20442;-68
2020/12/23 11:20:04;;;;;;;2.25;1.23;;;;;;;13.39;53.34;100584.38;5067361;28;20036;-67
2020/12/23 11:22:32;;;;;;;2.50;1.30;;;;;;;13.40;53.69;100580.63;5069070;28;20037;-69
2020/12/23 11:25:04;;;;;;;2.65;1.33;;;;;;;13.40;53.44;100575.13;5064741;28;20036;-68
2020/12/23 11:27:31;;;;;;;3.10;1.38;;;;;;;13.39;53.17;100575.28;5067511;28;20048;-69
2020/12/23 11:29:59;;;;;;;3.22;1.55;;;;;;;13.39;53.51;100573.41;5074582;28;20123;-69
2020/12/23 11:32:26;;;;;;;2.25;1.20;;;;;;;13.39;53.68;100567.91;5066797;28;20472;-69
2020/12/23 11:35:44;;;;;;;3.05;1.30;;;;;;;13.36;53.37;100573.69;5070562;28;20119;-68
2020/12/23 11:38:11;;;;;;;1.98;1.20;;;;;;;13.34;53.39;100564.75;5073401;28;20045;-69